createdAt,value
2022-12-19T00:00:35.033Z,14.50
2022-12-19T00:05:39.226Z,14.13
2022-12-19T00:10:41.929Z,13.82
2022-12-19T00:15:43.681Z,12.75
2022-12-19T00:20:45.484Z,14.57
2022-12-19T00:25:47.214Z,13.20
2022-12-19T00:30:50.524Z,12.40
2022-12-19T00:35:59.865Z,12.25
2022-12-19T00:41:33.802Z,12.85
2022-12-19T00:46:36.513Z,13.25
2022-12-19T00:51:38.515Z,13.00
2022-12-19T00:56:43.434Z,12.65
2022-12-19T01:01:45.347Z,13.10
2022-12-19T01:06:49.937Z,13.57
2022-12-19T01:12:10.920Z,14.65
2022-12-19T01:17:12.707Z,13.88
2022-12-19T01:22:14.524Z,15.30
2022-12-19T01:27:16.557Z,14.55
2022-12-19T01:32:18.425Z,13.55
2022-12-19T01:37:20.591Z,14.52
2022-12-19T01:42:23.575Z,14.15
2022-12-19T01:47:26.538Z,15.45
2022-12-19T01:52:28.518Z,13.75
2022-12-19T01:57:30.387Z,14.40
2022-12-19T02:02:36.066Z,14.50
2022-12-19T02:07:39.962Z,14.60
2022-12-19T02:12:43.851Z,14.18
2022-12-19T02:18:01.152Z,13.65
2022-12-19T02:23:48.321Z,13.20
2022-12-19T02:29:19.291Z,13.45
2022-12-19T02:34:33.403Z,15.45
2022-12-19T02:39:53.021Z,14.35
2022-12-19T02:44:56.672Z,14.40
2022-12-19T02:50:03.033Z,12.45
2022-12-19T02:55:09.800Z,13.25
2022-12-19T03:00:16.249Z,12.40
2022-12-19T03:05:34.188Z,11.82
2022-12-19T03:10:39.039Z,10.85
2022-12-19T03:15:41.985Z,9.90
2022-12-19T03:20:52.833Z,10.82
2022-12-19T03:26:00.011Z,10.82
2022-12-19T03:31:04.329Z,10.23
2022-12-19T03:36:09.211Z,10.07
2022-12-19T03:41:14.506Z,9.95
2022-12-19T03:46:26.083Z,8.75
2022-12-19T03:51:34.071Z,9.35
2022-12-19T03:56:45.654Z,9.75
2022-12-19T04:01:50.273Z,10.25
2022-12-19T04:06:53.274Z,9.82
2022-12-19T04:12:00.885Z,10.32
2022-12-19T04:17:43.437Z,9.07
2022-12-19T04:23:10.349Z,9.55
2022-12-19T04:28:34.846Z,9.02
2022-12-19T04:33:36.716Z,9.65
2022-12-19T04:38:38.729Z,10.05
2022-12-19T04:43:40.552Z,8.63
2022-12-19T04:48:42.419Z,8.25
2022-12-19T04:53:44.437Z,8.48
2022-12-19T04:58:46.289Z,9.30
2022-12-19T05:03:54.062Z,9.15
2022-12-19T05:08:57.021Z,9.10
2022-12-19T05:13:59.846Z,9.93
2022-12-19T05:19:01.800Z,9.07
2022-12-19T05:24:03.935Z,9.50
2022-12-19T05:29:05.820Z,9.95
2022-12-19T05:34:07.642Z,10.27
2022-12-19T05:39:09.476Z,10.55
2022-12-19T05:44:11.600Z,9.77
2022-12-19T05:49:17.683Z,9.85
2022-12-19T05:54:19.858Z,9.40
2022-12-19T05:59:21.656Z,10.05
2022-12-19T06:04:23.479Z,10.65
2022-12-19T06:09:25.381Z,10.95
2022-12-19T06:14:27.209Z,10.60
2022-12-19T06:19:30.745Z,10.93
2022-12-19T06:24:32.637Z,12.18
2022-12-19T06:29:34.489Z,10.57
2022-12-19T06:39:58.114Z,12.43
2022-12-19T06:44:59.963Z,11.68
2022-12-19T06:50:02.284Z,11.63
2022-12-19T06:55:04.408Z,12.55
2022-12-19T07:00:06.837Z,12.80
2022-12-19T07:05:09.767Z,12.48
2022-12-19T07:10:11.690Z,11.90
2022-12-19T07:15:13.664Z,13.45
2022-12-19T07:20:16.930Z,13.20
2022-12-19T07:25:18.805Z,13.23
2022-12-19T07:30:20.615Z,13.95
2022-12-19T07:35:23.218Z,12.90
2022-12-19T07:40:25.023Z,13.77
2022-12-19T07:45:27.849Z,13.63
2022-12-19T07:50:30.616Z,14.50
2022-12-19T07:55:33.690Z,13.30
2022-12-19T08:00:35.685Z,12.85
2022-12-19T08:05:37.533Z,12.07
2022-12-19T08:10:39.409Z,14.82
2022-12-19T08:15:41.288Z,13.68
2022-12-19T08:20:46.414Z,12.27
2022-12-19T08:25:48.369Z,12.50
2022-12-19T08:36:28.999Z,12.63
2022-12-19T08:41:32.081Z,11.57
2022-12-19T08:46:33.948Z,12.38
2022-12-19T08:51:35.788Z,12.90
2022-12-19T08:56:38.119Z,12.68
2022-12-19T09:01:48.277Z,14.13
2022-12-19T09:06:50.461Z,14.15
2022-12-19T09:11:52.322Z,15.30
2022-12-19T09:16:54.235Z,14.32
2022-12-19T09:21:59.707Z,15.35
2022-12-19T09:27:02.121Z,14.93
2022-12-19T09:32:04.118Z,16.30
2022-12-19T09:37:17.000Z,16.73
2022-12-19T09:42:40.924Z,16.40
2022-12-19T09:47:47.185Z,15.50
2022-12-19T09:53:02.644Z,15.02
2022-12-19T09:58:13.757Z,15.85
2022-12-19T10:03:39.783Z,14.80
2022-12-19T10:09:39.693Z,15.48
2022-12-19T10:14:31.808Z,14.18
2022-12-19T10:20:11.875Z,12.75
2022-12-19T10:25:34.889Z,16.02
2022-12-19T10:30:45.305Z,14.88
2022-12-19T10:35:57.475Z,15.38
2022-12-19T10:41:03.730Z,15.18
2022-12-19T10:46:18.158Z,15.55
2022-12-19T10:51:26.514Z,16.02
2022-12-19T10:56:37.139Z,15.38
2022-12-19T11:01:39.905Z,14.75
2022-12-19T11:06:49.455Z,15.15
2022-12-19T11:13:32.224Z,14.43
2022-12-19T11:25:32.891Z,14.00
2022-12-19T11:29:33.477Z,15.20
2022-12-19T11:30:43.752Z,16.02
2022-12-19T11:34:06.970Z,15.35
2022-12-19T11:39:19.495Z,15.30
2022-12-19T11:44:53.640Z,16.17
2022-12-19T11:50:03.595Z,16.38
2022-12-19T11:55:25.729Z,16.45
2022-12-19T12:00:28.150Z,17.65
2022-12-19T12:05:46.272Z,16.40
2022-12-19T12:15:44.870Z,15.00
2022-12-19T12:29:41.610Z,17.77
2022-12-19T12:31:11.789Z,16.08
2022-12-19T12:31:57.752Z,15.30
2022-12-19T12:35:56.637Z,15.27
2022-12-19T12:39:38.796Z,16.17
2022-12-19T12:44:45.961Z,15.60
2022-12-19T12:50:01.314Z,17.05
2022-12-19T12:55:06.421Z,15.57
2022-12-19T13:00:22.839Z,15.43
2022-12-19T13:05:53.744Z,16.40
2022-12-19T13:10:58.754Z,15.60
2022-12-19T13:16:20.624Z,14.93
2022-12-19T13:21:22.708Z,16.05
2022-12-19T13:26:50.158Z,18.30
2022-12-19T13:32:13.711Z,17.88
2022-12-19T13:39:47.738Z,19.75
2022-12-19T13:43:25.617Z,18.30
2022-12-19T13:48:43.892Z,18.25
2022-12-19T13:53:46.048Z,19.17
2022-12-19T13:59:00.695Z,21.10
2022-12-19T14:04:12.547Z,19.55
2022-12-19T14:11:27.416Z,19.17
2022-12-19T14:15:21.740Z,19.25
2022-12-19T14:22:05.553Z,17.70
2022-12-19T14:28:20.529Z,16.58
2022-12-19T14:31:18.766Z,17.38
2022-12-19T14:36:40.498Z,16.33
2022-12-19T14:42:04.352Z,14.60
2022-12-19T14:54:01.914Z,13.48
2022-12-19T14:54:52.571Z,13.70
2022-12-19T14:58:52.801Z,14.00
2022-12-19T15:04:50.766Z,14.00
2022-12-19T15:11:04.094Z,16.23
2022-12-19T15:14:59.009Z,13.65
2022-12-19T15:20:01.936Z,16.33
2022-12-19T15:25:04.063Z,14.45
2022-12-19T15:30:15.788Z,14.80
2022-12-19T15:35:19.853Z,14.55
2022-12-19T15:40:21.883Z,14.88
2022-12-19T15:45:24.619Z,14.63
2022-12-19T15:50:29.752Z,15.25
2022-12-19T15:55:31.822Z,15.15
2022-12-19T16:00:36.281Z,15.65
2022-12-19T16:05:38.194Z,14.82
2022-12-19T16:10:41.538Z,14.25
2022-12-19T16:15:44.454Z,12.98
2022-12-19T16:20:47.975Z,14.10
2022-12-19T16:25:51.003Z,15.50
2022-12-19T16:30:53.789Z,15.00
2022-12-19T16:36:05.790Z,14.57
2022-12-19T16:41:22.066Z,13.93
2022-12-19T16:46:24.062Z,13.20
2022-12-19T16:51:28.097Z,14.32
2022-12-19T16:56:33.987Z,13.45
2022-12-19T17:01:36.291Z,13.73
2022-12-19T17:06:38.191Z,21.73
2022-12-19T17:11:40.957Z,18.73
2022-12-19T17:16:42.841Z,17.33
2022-12-19T17:21:44.748Z,13.25
2022-12-19T17:26:47.057Z,15.93
2022-12-19T17:31:49.003Z,16.77
2022-12-19T17:36:51.417Z,14.95
2022-12-19T17:41:56.178Z,16.35
2022-12-19T17:46:58.982Z,15.60
2022-12-19T17:52:00.964Z,16.67
2022-12-19T17:57:02.871Z,17.15
2022-12-19T18:02:12.741Z,16.35
2022-12-19T18:07:18.343Z,18.38
2022-12-19T18:12:20.364Z,17.50
2022-12-19T18:17:25.519Z,17.75
2022-12-19T18:22:27.394Z,18.63
2022-12-19T18:27:29.216Z,19.10
2022-12-19T18:32:31.333Z,17.35
2022-12-19T18:37:33.378Z,16.52
2022-12-19T18:42:35.186Z,17.48
2022-12-19T18:47:37.018Z,15.20
2022-12-19T18:52:38.842Z,13.70
2022-12-19T18:57:40.646Z,16.23
2022-12-19T19:03:04.824Z,15.88
2022-12-19T19:08:22.471Z,26.48
2022-12-19T19:13:34.613Z,32.00
2022-12-19T19:18:40.359Z,17.25
2022-12-19T19:23:58.237Z,17.00
2022-12-19T19:29:00.602Z,16.65
2022-12-19T19:34:12.915Z,15.57
2022-12-19T19:39:15.597Z,15.55
2022-12-19T19:44:17.625Z,18.77
2022-12-19T19:49:23.164Z,16.40
2022-12-19T19:54:25.267Z,13.73
2022-12-19T19:59:31.620Z,16.33
2022-12-19T20:04:33.877Z,13.35
2022-12-19T20:09:35.884Z,15.82
2022-12-19T20:14:37.912Z,16.08
2022-12-19T20:19:40.002Z,15.90
2022-12-19T20:24:42.048Z,18.52
2022-12-19T20:29:44.387Z,16.65
2022-12-19T20:34:46.669Z,15.50
2022-12-19T20:39:48.763Z,17.98
2022-12-19T20:44:50.998Z,15.18
2022-12-19T20:49:53.240Z,16.00
2022-12-19T20:54:55.092Z,15.85
2022-12-19T20:59:56.942Z,16.05
2022-12-19T21:04:58.829Z,25.00
2022-12-19T21:10:00.658Z,20.17
2022-12-19T21:15:02.581Z,15.90
2022-12-19T21:20:04.935Z,17.30
2022-12-19T21:25:07.235Z,21.02
2022-12-19T21:30:09.725Z,20.80
2022-12-19T21:35:11.904Z,17.25
2022-12-19T21:40:14.124Z,18.65
2022-12-19T21:45:16.224Z,16.95
2022-12-19T21:50:18.118Z,16.92
2022-12-19T21:55:19.968Z,17.63
2022-12-19T22:00:21.932Z,18.40
2022-12-19T22:05:23.906Z,19.20
2022-12-19T22:10:25.801Z,19.55
2022-12-19T22:15:27.615Z,20.02
2022-12-19T22:20:30.202Z,19.95
2022-12-19T22:25:32.015Z,20.27
2022-12-19T22:30:36.856Z,19.02
2022-12-19T22:35:38.740Z,18.60
2022-12-19T22:40:40.553Z,21.05
2022-12-19T22:45:42.423Z,20.88
2022-12-19T22:50:47.099Z,20.00
2022-12-19T22:55:48.903Z,18.40
2022-12-19T23:00:50.807Z,21.55
2022-12-19T23:05:52.616Z,21.65
2022-12-19T23:10:55.258Z,24.17
2022-12-19T23:15:57.615Z,26.95
2022-12-19T23:21:09.039Z,17.83
2022-12-19T23:26:17.523Z,19.98
2022-12-19T23:31:19.832Z,20.00
2022-12-19T23:36:45.293Z,30.05
2022-12-19T23:41:44.034Z,21.27
2022-12-19T23:46:46.141Z,20.20
2022-12-19T23:51:47.995Z,20.58
2022-12-19T23:56:49.868Z,19.15
